Flight Track Log - Related Links

Times and Time Zones

All times are in EDT time to prevent confusion due to time zone crossing. See the FLG4222 flight status page for this flight to view local times or setup timezone preferences in your user account.

Time Position Orientation Groundspeed Altitude Reporting Facility
EDT Latitude Longitude Course Direction KTS MPH feet Rate Location/Type
Tue 11:53:36 AM 42.2528 -76.0714 290° West 166 191 4,900  Level New Center
Tue 11:54:37 AM 42.2781 -76.1575 292° West 207 238 7,000 1,041 Climbing New Center
Tue 11:55:37 AM 42.3008 -76.2461 289° West 259 298 7,000 450 Level New Center
Tue 11:56:37 AM 42.3317 -76.3497 292° West 264 304 7,900 545 Climbing New Center
Tue 11:57:38 AM 42.3561 -76.4444 289° West 269 310 8,100 1,218 Climbing New Center
Tue 11:58:00 AM 42.2309 -76.7462 289° West  Level Estimated
Tue 11:59:59 AM 42.4228 -76.6828 291° West 312 359 12,000  Level Cleveland Center
Tue 12:01:01 PM 42.4536 -76.7986 290° West 325 374 13,600 1,561 Climbing Cleveland Center
Tue 12:02:02 PM 42.4858 -76.9206 290° West 340 391 15,200 1,512 Climbing Cleveland Center
Tue 12:03:04 PM 42.5192 -77.0450 290° West 350 403 16,700 1,306 Climbing Cleveland Center
Tue 12:04:06 PM 42.5486 -77.1725 287° West 358 412 17,900 1,258 Climbing Cleveland Center
Tue 12:05:08 PM 42.5564 -77.3128 274° West 374 430 19,300 1,161 Climbing Cleveland Center
Tue 12:06:10 PM 42.5650 -77.4619 275° West 371 427 20,300 919 Climbing Cleveland Center
Tue 12:07:12 PM 42.5725 -77.6047 274° West 377 434 21,200 878 Climbing Cleveland Center
Tue 12:08:13 PM 42.5811 -77.7503 275° West 386 444 22,100 878 Climbing Cleveland Center
Tue 12:09:15 PM 42.5906 -77.9264 274° West 389 448 23,000 774 Climbing Cleveland Center
Tue 12:10:17 PM 42.5981 -78.0769 274° West 396 456 23,700 581 Climbing Cleveland Center
Tue 12:11:19 PM 42.6053 -78.2292 274° West 402 463 24,200 484 Climbing Cleveland Center
Tue 12:12:21 PM 42.6133 -78.3833 274° West 407 468 24,700 532 Climbing Cleveland Center
Tue 12:13:23 PM 42.6208 -78.5422 274° West 420 483 25,300 484 Climbing Cleveland Center
Tue 12:14:25 PM 42.6300 -78.7017 275° West 423 487 25,700 339 Climbing Cleveland Center
Tue 12:15:27 PM 42.6386 -78.8931 274° West 424 488 26,000 144 Climbing Cleveland Center
Tue 12:16:30 PM 42.6447 -79.0597 273° West 440 506 26,000  Level Cleveland Center
Tue 12:17:32 PM 42.6525 -79.2267 274° West 443 510 26,000  Level Cleveland Center
Tue 12:18:34 PM 42.6589 -79.3961 273° West 449 517 26,000  Level Cleveland Center
Tue 12:19:36 PM 42.6647 -79.5650 273° West 448 516 26,000  Level Cleveland Center
Tue 12:20:38 PM 42.6708 -79.7314 273° West 442 509 26,000  Level Cleveland Center
Tue 12:21:40 PM 42.6769 -79.9264 273° West 432 497 26,000  Level Cleveland Center
Tue 12:22:42 PM 42.6797 -80.0814 271° West 433 498 26,000  Level Cleveland Center
Tue 12:23:44 PM 42.6869 -80.2508 273° West 442 509 26,000  Level Cleveland Center
Tue 12:24:46 PM 42.6919 -80.4158 272° West 438 504 26,000  Level Cleveland Center
Tue 12:25:48 PM 42.6978 -80.5825 273° West 438 504 26,000 -242 Level Cleveland Center
Tue 12:26:50 PM 42.7036 -80.7772 272° West 442 509 25,500 -919 Descending Cleveland Center
Tue 12:27:52 PM 42.6994 -80.9422 268° West 436 502 24,100 -726 Descending Cleveland Center
Tue 12:28:54 PM 42.6811 -81.1028 261° West 429 494 24,000 -484 Descending Cleveland Center
Tue 12:29:56 PM 42.6628 -81.2647 261° West 431 496 23,100 -960 Descending Cleveland Center
Tue 12:30:59 PM 42.6442 -81.4206 261° West 421 484 22,000 -528 Descending Cleveland Center
Tue 12:32:01 PM 42.6264 -81.5717 261° West 406 467 22,000 -629 Level Cleveland Center
Tue 12:33:03 PM 42.6050 -81.7564 261° West 418 481 20,700 -1,306 Descending Cleveland Center
Tue 12:34:05 PM 42.5892 -81.8883 261° West 403 464 19,300 -1,500 Descending Cleveland Center
Tue 12:35:07 PM 42.5717 -82.0339 261° West 394 453 17,600 -1,742 Descending Cleveland Center
Tue 12:36:09 PM 42.5542 -82.1761 261° West 386 444 15,700 -2,032 Descending Cleveland Center
Tue 12:37:11 PM 42.5331 -82.3458 260° West 383 441 13,400 -2,175 Descending Cleveland Center
Tue 12:37:29 PM 42.5267 -82.3961 260° West 382 440 12,800 -1,355 Descending Cleveland Center
Tue 12:38:13 PM 42.5156 -82.4836 260° West 377 434 12,000 -490 Descending Cleveland Center
Tue 12:39:07 PM 42.4894 -82.5981 253° West 307 353 12,000  Level Cleveland Center
Tue 12:39:15 PM 42.4872 -82.5983 185° South 330 380 12,000  Level Cleveland Center
Tue 12:40:08 PM 42.4575 -82.6956 248° West 264 304 12,000  Level Cleveland Center
Tue 12:40:17 PM 42.4544 -82.6958 184° South 297 342 12,000  Level Cleveland Center
Tue 12:41:04 PM 42.4975 -82.7489 318° Northwest 237 273 12,000 -97 Level Cleveland Center
Tue 12:41:19 PM 42.5036 -82.7503 350° North 257 296 11,900 -984 Descending Cleveland Center
Tue 12:42:05 PM 42.5414 -82.8086 311° West 252 290 11,000 -871 Descending Cleveland Center
Tue 12:42:21 PM 42.5319 -82.8244 231° Southwest 245 282 11,000  Level Cleveland Center
Tue 12:43:13 PM 42.4889 -82.8694 218° Southwest 231 266 11,000  Level Cleveland Center
Tue 12:43:23 PM 42.4808 -82.8758 210° Southwest 234 269 11,000 -982 Level Cleveland Center
Tue 12:44:08 PM 42.4417 -82.9139 216° Southwest 223 257 10,100 -1,161 Descending Cleveland Center
Tue 12:44:25 PM 42.4258 -82.9142 181° South 229 264 9,800 -1,527 Descending Cleveland Center
Tue 12:45:03 PM 42.3861 -82.9292 196° South 217 250 8,700 -1,548 Descending Cleveland Center
Tue 12:45:27 PM 42.3781 -82.9500 242° Southwest 223 257 8,200 -1,839 Descending Cleveland Center
Tue 12:46:05 PM 42.4017 -82.9992 303° West 228 262 6,800 -1,839 Descending Cleveland Center
Tue 12:46:29 PM 42.4167 -83.0058 342° North 222 255 6,300 -658 Descending Cleveland Center
Tue 12:47:18 PM 42.4719 -83.0142 354° North 204 235 6,000 -290 Descending Cleveland Center
Tue 12:47:31 PM 42.4742 -83.0131 20° North 211 243 6,000  Level Cleveland Center
Tue 12:48:13 PM 42.5139 -83.0397 334° Northwest 200 230 6,000  Level Cleveland Center
Tue 12:48:34 PM 42.5189 -83.0597 289° West 206 237 6,000  Level Cleveland Center
Tue 12:49:08 PM 42.5072 -83.1011 249° West 196 226 6,000  Level Cleveland Center
Tue 12:49:36 PM 42.4972 -83.1233 239° Southwest 192 221 6,000  Level Cleveland Center
Tue 12:50:09 PM 42.4700 -83.1497 216° Southwest 193 222 6,000  Level Cleveland Center
Tue 12:50:38 PM 42.4514 -83.1600 202° Southwest 193 222 6,000 -655 Level Cleveland Center
Tue 12:51:04 PM 42.4278 -83.1808 213° Southwest 191 220 5,400 -1,065 Descending Cleveland Center
Tue 12:51:40 PM 42.4053 -83.1950 205° Southwest 190 219 4,900 -986 Descending Cleveland Center
Tue 12:52:17 PM 42.3725 -83.2211 210° Southwest 176 203 4,200 -968 Descending Cleveland Center
Tue 12:52:42 PM 42.3611 -83.2272 202° Southwest 185 213 3,900 -984 Descending Cleveland Center
Tue 12:53:18 PM 42.3281 -83.2544 211° Southwest 182 209 3,200 -871 Descending Cleveland Center
Tue 12:53:44 PM 42.3175 -83.2597 200° South 180 207 3,000 -982 Descending Cleveland Center
Tue 12:54:13 PM 42.2900 -83.2831 212° Southwest 162 186 2,300 -1,065 Descending Cleveland Center
Tue 12:54:46 PM 42.2708 -83.2947 204° Southwest 168 193 1,900 -689 Descending Cleveland Center
Tue 12:55:14 PM 42.2544 -83.3092 213° Southwest 136 157 1,600 -677 Descending Cleveland Center
Tue 12:55:48 PM 42.2369 -83.3189 202° Southwest 148 170 1,200 -764 Descending Cleveland Center
Tue 12:56:09 PM 42.2236 -83.3300 212° Southwest 142 163 900 -194 Descending Cleveland Center
Tue 12:56:50 PM 42.2033 -83.3450 209° Southwest 147 169 1,000 146 Climbing Cleveland Center

Login

Don't have an account? Register now (free) for customized features, flight alerts, and more!